sensor_id;sensor_type;location;lat;lon;timestamp;pressure;altitude;pressure_sealevel;temperature;humidity
37972;BME280;23794;48.234;8.344;2024-01-10T00:00:06;94782.47;;;-5.94;68.82
37972;BME280;23794;48.234;8.344;2024-01-10T00:02:33;94785.19;;;-5.99;69.28
37972;BME280;23794;48.234;8.344;2024-01-10T00:05:00;94783.34;;;-6.03;69.09
37972;BME280;23794;48.234;8.344;2024-01-10T00:07:26;94777.97;;;-5.98;68.85
37972;BME280;23794;48.234;8.344;2024-01-10T00:09:53;94781.41;;;-5.98;69.22
37972;BME280;23794;48.234;8.344;2024-01-10T00:12:20;94779.50;;;-5.92;68.97
37972;BME280;23794;48.234;8.344;2024-01-10T00:14:50;94782.75;;;-5.95;70.00
37972;BME280;23794;48.234;8.344;2024-01-10T00:17:16;94778.94;;;-5.89;69.68
37972;BME280;23794;48.234;8.344;2024-01-10T00:19:43;94775.44;;;-5.84;69.71
37972;BME280;23794;48.234;8.344;2024-01-10T00:22:10;94775.59;;;-5.75;70.24
37972;BME280;23794;48.234;8.344;2024-01-10T00:24:37;94775.91;;;-5.77;70.07
37972;BME280;23794;48.234;8.344;2024-01-10T00:27:04;94774.13;;;-5.63;69.95
37972;BME280;23794;48.234;8.344;2024-01-10T00:29:32;94770.94;;;-5.65;69.76
37972;BME280;23794;48.234;8.344;2024-01-10T00:31:59;94770.72;;;-5.68;68.98
37972;BME280;23794;48.234;8.344;2024-01-10T00:34:26;94766.69;;;-5.90;69.05
37972;BME280;23794;48.234;8.344;2024-01-10T00:36:53;94771.09;;;-6.04;69.60
37972;BME280;23794;48.234;8.344;2024-01-10T00:39:20;94767.13;;;-6.07;70.55
37972;BME280;23794;48.234;8.344;2024-01-10T00:41:46;94772.06;;;-5.95;69.23
37972;BME280;23794;48.234;8.344;2024-01-10T00:44:14;94768.03;;;-5.93;69.19
37972;BME280;23794;48.234;8.344;2024-01-10T00:46:40;94771.16;;;-5.85;69.76
37972;BME280;23794;48.234;8.344;2024-01-10T00:49:07;94765.78;;;-5.80;69.02
37972;BME280;23794;48.234;8.344;2024-01-10T00:51:34;94761.47;;;-5.76;69.19
37972;BME280;23794;48.234;8.344;2024-01-10T00:54:01;94760.72;;;-5.82;69.16
37972;BME280;23794;48.234;8.344;2024-01-10T00:56:28;94763.72;;;-5.88;68.49
37972;BME280;23794;48.234;8.344;2024-01-10T00:58:55;94771.50;;;-5.92;68.59
37972;BME280;23794;48.234;8.344;2024-01-10T01:01:24;94768.16;;;-5.79;69.34
37972;BME280;23794;48.234;8.344;2024-01-10T01:03:51;94764.19;;;-5.81;69.10
37972;BME280;23794;48.234;8.344;2024-01-10T01:06:18;94767.69;;;-5.86;68.91
37972;BME280;23794;48.234;8.344;2024-01-10T01:08:45;94772.19;;;-5.81;69.77
37972;BME280;23794;48.234;8.344;2024-01-10T01:11:12;94771.72;;;-5.88;70.07
37972;BME280;23794;48.234;8.344;2024-01-10T01:13:41;94763.66;;;-5.83;70.14
37972;BME280;23794;48.234;8.344;2024-01-10T01:16:08;94773.25;;;-5.82;69.86
37972;BME280;23794;48.234;8.344;2024-01-10T01:18:35;94779.97;;;-5.85;69.24
37972;BME280;23794;48.234;8.344;2024-01-10T01:21:02;94784.53;;;-5.90;69.57
37972;BME280;23794;48.234;8.344;2024-01-10T01:23:29;94779.97;;;-5.85;69.90
37972;BME280;23794;48.234;8.344;2024-01-10T01:26:07;94780.88;;;-5.70;69.71
37972;BME280;23794;48.234;8.344;2024-01-10T01:28:34;94782.06;;;-5.82;68.78
37972;BME280;23794;48.234;8.344;2024-01-10T01:31:01;94786.34;;;-5.81;69.87
37972;BME280;23794;48.234;8.344;2024-01-10T01:33:28;94779.66;;;-5.83;70.30
37972;BME280;23794;48.234;8.344;2024-01-10T01:35:55;94780.63;;;-5.69;69.77
37972;BME280;23794;48.234;8.344;2024-01-10T01:38:22;94784.63;;;-5.71;69.42
37972;BME280;23794;48.234;8.344;2024-01-10T01:40:49;94775.22;;;-5.88;70.01
37972;BME280;23794;48.234;8.344;2024-01-10T01:43:24;94774.16;;;-5.92;70.92
37972;BME280;23794;48.234;8.344;2024-01-10T01:45:55;94773.88;;;-5.90;71.41
37972;BME280;23794;48.234;8.344;2024-01-10T01:48:24;94773.38;;;-5.93;71.34
37972;BME280;23794;48.234;8.344;2024-01-10T01:51:02;94768.81;;;-5.92;71.54
37972;BME280;23794;48.234;8.344;2024-01-10T01:53:31;94764.25;;;-5.86;71.02
37972;BME280;23794;48.234;8.344;2024-01-10T01:56:00;94767.53;;;-5.95;71.92
37972;BME280;23794;48.234;8.344;2024-01-10T01:58:30;94768.03;;;-5.93;72.00
37972;BME280;23794;48.234;8.344;2024-01-10T02:00:56;94770.25;;;-6.00;72.52
37972;BME280;23794;48.234;8.344;2024-01-10T02:03:23;94774.00;;;-6.01;72.66
37972;BME280;23794;48.234;8.344;2024-01-10T02:05:51;94772.16;;;-6.05;72.39
37972;BME280;23794;48.234;8.344;2024-01-10T02:08:18;94770.06;;;-6.43;72.09
37972;BME280;23794;48.234;8.344;2024-01-10T02:10:45;94780.03;;;-6.54;72.96
37972;BME280;23794;48.234;8.344;2024-01-10T02:13:12;94781.78;;;-6.74;73.28
37972;BME280;23794;48.234;8.344;2024-01-10T02:15:39;94774.41;;;-6.87;73.80
37972;BME280;23794;48.234;8.344;2024-01-10T02:18:06;94771.44;;;-6.85;73.88
37972;BME280;23794;48.234;8.344;2024-01-10T02:20:33;94768.03;;;-6.91;74.38
37972;BME280;23794;48.234;8.344;2024-01-10T02:23:00;94779.75;;;-6.92;74.46
37972;BME280;23794;48.234;8.344;2024-01-10T02:25:27;94778.59;;;-6.76;73.99
37972;BME280;23794;48.234;8.344;2024-01-10T02:27:54;94781.72;;;-6.68;73.98
37972;BME280;23794;48.234;8.344;2024-01-10T02:30:21;94775.91;;;-6.70;73.74
37972;BME280;23794;48.234;8.344;2024-01-10T02:32:47;94775.38;;;-6.73;73.32
37972;BME280;23794;48.234;8.344;2024-01-10T02:35:14;94766.31;;;-6.71;72.99
37972;BME280;23794;48.234;8.344;2024-01-10T02:37:41;94761.81;;;-6.81;73.31
37972;BME280;23794;48.234;8.344;2024-01-10T02:40:08;94764.00;;;-6.83;74.54
37972;BME280;23794;48.234;8.344;2024-01-10T02:42:35;94768.88;;;-6.61;74.27
37972;BME280;23794;48.234;8.344;2024-01-10T02:45:01;94766.09;;;-6.46;73.76
37972;BME280;23794;48.234;8.344;2024-01-10T02:47:28;94768.53;;;-6.49;73.21
37972;BME280;23794;48.234;8.344;2024-01-10T02:49:55;94762.66;;;-6.46;73.35
37972;BME280;23794;48.234;8.344;2024-01-10T02:52:22;94765.56;;;-6.43;72.93
37972;BME280;23794;48.234;8.344;2024-01-10T02:54:49;94776.97;;;-6.37;73.09
37972;BME280;23794;48.234;8.344;2024-01-10T02:57:16;94775.88;;;-6.36;72.62
37972;BME280;23794;48.234;8.344;2024-01-10T02:59:43;94773.25;;;-6.41;73.84
37972;BME280;23794;48.234;8.344;2024-01-10T03:02:09;94771.06;;;-6.29;73.63
37972;BME280;23794;48.234;8.344;2024-01-10T03:04:47;94764.13;;;-6.30;72.56
37972;BME280;23794;48.234;8.344;2024-01-10T03:07:14;94764.75;;;-6.43;72.60
37972;BME280;23794;48.234;8.344;2024-01-10T03:09:40;94762.31;;;-6.39;73.42
37972;BME280;23794;48.234;8.344;2024-01-10T03:12:07;94763.03;;;-6.29;72.95
37972;BME280;23794;48.234;8.344;2024-01-10T03:14:34;94766.44;;;-6.23;73.97
37972;BME280;23794;48.234;8.344;2024-01-10T03:17:01;94775.97;;;-6.12;73.22
37972;BME280;23794;48.234;8.344;2024-01-10T03:19:27;94774.50;;;-5.99;72.31
37972;BME280;23794;48.234;8.344;2024-01-10T03:21:54;94765.19;;;-6.01;72.08
37972;BME280;23794;48.234;8.344;2024-01-10T03:24:20;94767.66;;;-6.10;71.40
37972;BME280;23794;48.234;8.344;2024-01-10T03:26:50;94765.44;;;-6.27;71.49
37972;BME280;23794;48.234;8.344;2024-01-10T03:29:17;94760.16;;;-6.37;72.08
37972;BME280;23794;48.234;8.344;2024-01-10T03:31:43;94757.28;;;-6.41;72.47
37972;BME280;23794;48.234;8.344;2024-01-10T03:34:10;94758.81;;;-6.35;72.26
37972;BME280;23794;48.234;8.344;2024-01-10T03:36:36;94758.25;;;-6.32;72.60
37972;BME280;23794;48.234;8.344;2024-01-10T03:39:03;94754.53;;;-6.31;72.69
37972;BME280;23794;48.234;8.344;2024-01-10T03:41:30;94756.34;;;-6.26;72.83
37972;BME280;23794;48.234;8.344;2024-01-10T03:43:57;94757.13;;;-6.26;74.18
37972;BME280;23794;48.234;8.344;2024-01-10T03:46:23;94758.13;;;-6.16;74.03
37972;BME280;23794;48.234;8.344;2024-01-10T03:48:50;94755.59;;;-6.02;73.48
37972;BME280;23794;48.234;8.344;2024-01-10T03:51:19;94758.97;;;-5.91;72.98
37972;BME280;23794;48.234;8.344;2024-01-10T03:53:45;94762.75;;;-5.98;73.25
37972;BME280;23794;48.234;8.344;2024-01-10T03:56:12;94759.56;;;-6.00;73.56
37972;BME280;23794;48.234;8.344;2024-01-10T03:58:39;94763.34;;;-6.06;74.22
37972;BME280;23794;48.234;8.344;2024-01-10T04:01:06;94763.94;;;-6.09;74.50
37972;BME280;23794;48.234;8.344;2024-01-10T04:03:34;94758.44;;;-5.94;73.85
37972;BME280;23794;48.234;8.344;2024-01-10T04:06:04;94753.41;;;-5.95;73.14
37972;BME280;23794;48.234;8.344;2024-01-10T04:08:31;94759.50;;;-5.95;73.79
37972;BME280;23794;48.234;8.344;2024-01-10T04:10:57;94767.84;;;-6.01;73.40
37972;BME280;23794;48.234;8.344;2024-01-10T04:13:24;94753.78;;;-6.07;73.24
37972;BME280;23794;48.234;8.344;2024-01-10T04:15:52;94755.78;;;-5.94;73.64
37972;BME280;23794;48.234;8.344;2024-01-10T04:18:19;94756.28;;;-5.91;73.08
37972;BME280;23794;48.234;8.344;2024-01-10T04:20:49;94746.97;;;-5.94;72.36
37972;BME280;23794;48.234;8.344;2024-01-10T04:23:16;94744.72;;;-6.11;73.61
37972;BME280;23794;48.234;8.344;2024-01-10T04:25:43;94749.94;;;-6.25;73.60
37972;BME280;23794;48.234;8.344;2024-01-10T04:28:10;94758.97;;;-6.21;73.19
37972;BME280;23794;48.234;8.344;2024-01-10T04:30:37;94760.84;;;-6.21;73.47
37972;BME280;23794;48.234;8.344;2024-01-10T04:33:05;94762.41;;;-6.20;74.06
37972;BME280;23794;48.234;8.344;2024-01-10T04:35:31;94764.78;;;-6.14;74.61
37972;BME280;23794;48.234;8.344;2024-01-10T04:37:58;94762.47;;;-6.26;74.61
37972;BME280;23794;48.234;8.344;2024-01-10T04:40:25;94758.19;;;-6.21;73.54
37972;BME280;23794;48.234;8.344;2024-01-10T04:42:51;94766.78;;;-6.30;73.14
37972;BME280;23794;48.234;8.344;2024-01-10T04:45:18;94768.63;;;-6.25;73.71
37972;BME280;23794;48.234;8.344;2024-01-10T04:47:45;94767.75;;;-6.20;73.04
37972;BME280;23794;48.234;8.344;2024-01-10T04:50:12;94768.03;;;-6.22;73.08
37972;BME280;23794;48.234;8.344;2024-01-10T04:52:40;94764.31;;;-6.21;72.74
37972;BME280;23794;48.234;8.344;2024-01-10T04:55:07;94766.19;;;-6.21;72.55
37972;BME280;23794;48.234;8.344;2024-01-10T04:57:34;94764.97;;;-6.34;72.52
37972;BME280;23794;48.234;8.344;2024-01-10T05:00:02;94768.75;;;-6.46;72.84
37972;BME280;23794;48.234;8.344;2024-01-10T05:02:30;94767.16;;;-6.47;73.23
37972;BME280;23794;48.234;8.344;2024-01-10T05:04:58;94767.47;;;-6.48;73.12
37972;BME280;23794;48.234;8.344;2024-01-10T05:07:25;94772.78;;;-6.48;73.44
37972;BME280;23794;48.234;8.344;2024-01-10T05:09:51;94767.66;;;-6.39;73.49
37972;BME280;23794;48.234;8.344;2024-01-10T05:12:18;94769.56;;;-6.45;73.47
37972;BME280;23794;48.234;8.344;2024-01-10T05:14:44;94764.59;;;-6.57;73.34
37972;BME280;23794;48.234;8.344;2024-01-10T05:17:11;94764.31;;;-6.55;74.77
37972;BME280;23794;48.234;8.344;2024-01-10T05:19:38;94759.97;;;-6.46;74.94
37972;BME280;23794;48.234;8.344;2024-01-10T05:22:06;94768.75;;;-6.46;75.49
37972;BME280;23794;48.234;8.344;2024-01-10T05:24:32;94764.50;;;-6.47;75.43
37972;BME280;23794;48.234;8.344;2024-01-10T05:26:59;94761.88;;;-6.52;75.40
37972;BME280;23794;48.234;8.344;2024-01-10T05:29:26;94760.06;;;-6.57;75.33
37972;BME280;23794;48.234;8.344;2024-01-10T05:31:53;94755.25;;;-6.54;73.95
37972;BME280;23794;48.234;8.344;2024-01-10T05:34:20;94758.84;;;-6.75;76.16
37972;BME280;23794;48.234;8.344;2024-01-10T05:36:47;94757.56;;;-6.77;75.98
37972;BME280;23794;48.234;8.344;2024-01-10T05:39:14;94758.81;;;-6.69;74.81
37972;BME280;23794;48.234;8.344;2024-01-10T05:41:42;94757.78;;;-6.74;74.28
37972;BME280;23794;48.234;8.344;2024-01-10T05:44:12;94759.69;;;-6.79;74.52
37972;BME280;23794;48.234;8.344;2024-01-10T05:46:39;94757.69;;;-6.98;76.26
37972;BME280;23794;48.234;8.344;2024-01-10T05:49:07;94752.41;;;-7.03;77.02
37972;BME280;23794;48.234;8.344;2024-01-10T05:51:34;94753.47;;;-6.99;76.06
37972;BME280;23794;48.234;8.344;2024-01-10T05:54:01;94757.13;;;-6.95;75.39
37972;BME280;23794;48.234;8.344;2024-01-10T05:56:28;94755.59;;;-7.01;76.71
37972;BME280;23794;48.234;8.344;2024-01-10T05:58:54;94761.47;;;-7.04;76.02
37972;BME280;23794;48.234;8.344;2024-01-10T06:01:21;94766.47;;;-6.97;75.42
37972;BME280;23794;48.234;8.344;2024-01-10T06:03:48;94765.19;;;-7.00;75.00
37972;BME280;23794;48.234;8.344;2024-01-10T06:06:15;94765.22;;;-7.05;75.00
37972;BME280;23794;48.234;8.344;2024-01-10T06:08:41;94764.75;;;-7.17;75.85
37972;BME280;23794;48.234;8.344;2024-01-10T06:11:08;94765.06;;;-7.24;77.71
37972;BME280;23794;48.234;8.344;2024-01-10T06:13:36;94764.19;;;-7.14;75.59
37972;BME280;23794;48.234;8.344;2024-01-10T06:16:18;94769.03;;;-7.22;76.08
37972;BME280;23794;48.234;8.344;2024-01-10T06:18:45;94775.47;;;-7.28;76.53
37972;BME280;23794;48.234;8.344;2024-01-10T06:21:12;94768.28;;;-7.32;76.88
37972;BME280;23794;48.234;8.344;2024-01-10T06:23:39;94768.28;;;-7.32;76.53
37972;BME280;23794;48.234;8.344;2024-01-10T06:26:05;94760.81;;;-7.30;77.75
37972;BME280;23794;48.234;8.344;2024-01-10T06:28:33;94760.06;;;-7.36;77.98
37972;BME280;23794;48.234;8.344;2024-01-10T06:30:59;94767.19;;;-7.26;77.47
37972;BME280;23794;48.234;8.344;2024-01-10T06:33:26;94760.31;;;-7.32;78.05
37972;BME280;23794;48.234;8.344;2024-01-10T06:35:53;94767.44;;;-7.23;77.40
37972;BME280;23794;48.234;8.344;2024-01-10T06:38:20;94772.72;;;-7.17;76.85
37972;BME280;23794;48.234;8.344;2024-01-10T06:40:49;94776.19;;;-7.17;77.34
37972;BME280;23794;48.234;8.344;2024-01-10T06:43:17;94784.94;;;-7.11;76.43
37972;BME280;23794;48.234;8.344;2024-01-10T06:45:44;94782.53;;;-7.08;76.11
37972;BME280;23794;48.234;8.344;2024-01-10T06:48:11;94775.97;;;-7.21;77.60
37972;BME280;23794;48.234;8.344;2024-01-10T06:50:37;94790.88;;;-7.25;76.87
37972;BME280;23794;48.234;8.344;2024-01-10T06:53:04;94785.00;;;-7.22;76.82
37972;BME280;23794;48.234;8.344;2024-01-10T06:55:31;94787.84;;;-7.08;76.11
37972;BME280;23794;48.234;8.344;2024-01-10T06:57:58;94796.44;;;-7.16;76.79
37972;BME280;23794;48.234;8.344;2024-01-10T07:00:24;94794.59;;;-7.21;77.65
37972;BME280;23794;48.234;8.344;2024-01-10T07:02:51;94797.03;;;-7.34;78.35
37972;BME280;23794;48.234;8.344;2024-01-10T07:05:18;94799.16;;;-7.31;78.32
37972;BME280;23794;48.234;8.344;2024-01-10T07:07:46;94794.91;;;-7.32;78.15
37972;BME280;23794;48.234;8.344;2024-01-10T07:10:13;94793.00;;;-7.22;77.12
37972;BME280;23794;48.234;8.344;2024-01-10T07:12:39;94799.88;;;-7.15;76.41
37972;BME280;23794;48.234;8.344;2024-01-10T07:15:07;94800.94;;;-7.16;77.24
37972;BME280;23794;48.234;8.344;2024-01-10T07:17:34;94802.81;;;-7.12;77.26
37972;BME280;23794;48.234;8.344;2024-01-10T07:20:00;94800.34;;;-7.03;76.77
37972;BME280;23794;48.234;8.344;2024-01-10T07:22:27;94805.41;;;-7.01;76.49
37972;BME280;23794;48.234;8.344;2024-01-10T07:24:54;94802.16;;;-6.93;76.59
37972;BME280;23794;48.234;8.344;2024-01-10T07:27:20;94803.47;;;-6.91;76.61
37972;BME280;23794;48.234;8.344;2024-01-10T07:29:47;94806.13;;;-6.91;77.21
37972;BME280;23794;48.234;8.344;2024-01-10T07:32:14;94804.78;;;-6.88;78.18
37972;BME280;23794;48.234;8.344;2024-01-10T07:34:41;94804.19;;;-6.80;77.38
37972;BME280;23794;48.234;8.344;2024-01-10T07:37:07;94805.28;;;-6.81;76.96
37972;BME280;23794;48.234;8.344;2024-01-10T07:39:35;94809.28;;;-6.89;76.51
37972;BME280;23794;48.234;8.344;2024-01-10T07:42:02;94818.16;;;-6.98;77.29
37972;BME280;23794;48.234;8.344;2024-01-10T07:44:29;94809.28;;;-6.89;77.38
37972;BME280;23794;48.234;8.344;2024-01-10T07:46:56;94816.63;;;-7.05;77.29
37972;BME280;23794;48.234;8.344;2024-01-10T07:49:22;94813.41;;;-7.01;77.58
37972;BME280;23794;48.234;8.344;2024-01-10T07:51:50;94826.19;;;-7.03;77.63
37972;BME280;23794;48.234;8.344;2024-01-10T07:54:17;94818.97;;;-6.98;77.58
37972;BME280;23794;48.234;8.344;2024-01-10T07:56:44;94827.56;;;-7.06;77.66
37972;BME280;23794;48.234;8.344;2024-01-10T07:59:10;94820.53;;;-6.92;77.46
37972;BME280;23794;48.234;8.344;2024-01-10T08:01:43;94829.41;;;-7.01;77.19
37972;BME280;23794;48.234;8.344;2024-01-10T08:04:12;94831.56;;;-7.14;77.71
37972;BME280;23794;48.234;8.344;2024-01-10T08:06:41;94829.34;;;-6.96;77.68
37972;BME280;23794;48.234;8.344;2024-01-10T08:09:08;94831.09;;;-6.81;77.01
37972;BME280;23794;48.234;8.344;2024-01-10T08:11:38;94831.88;;;-6.70;76.96
37972;BME280;23794;48.234;8.344;2024-01-10T08:14:04;94832.00;;;-6.96;76.83
37972;BME280;23794;48.234;8.344;2024-01-10T08:16:31;94839.13;;;-6.86;77.42
37972;BME280;23794;48.234;8.344;2024-01-10T08:18:59;94832.00;;;-6.96;77.67
37972;BME280;23794;48.234;8.344;2024-01-10T08:21:26;94831.66;;;-6.84;77.35
37972;BME280;23794;48.234;8.344;2024-01-10T08:23:52;94839.16;;;-6.92;77.82
37972;BME280;23794;48.234;8.344;2024-01-10T08:26:19;94840.47;;;-6.89;77.48
37972;BME280;23794;48.234;8.344;2024-01-10T08:28:45;94843.09;;;-6.84;77.19
37972;BME280;23794;48.234;8.344;2024-01-10T08:31:16;94839.63;;;-6.74;77.30
37972;BME280;23794;48.234;8.344;2024-01-10T08:33:43;94844.41;;;-6.76;76.89
37972;BME280;23794;48.234;8.344;2024-01-10T08:36:10;94838.75;;;-6.69;77.27
37972;BME280;23794;48.234;8.344;2024-01-10T08:38:39;94841.47;;;-6.75;77.25
37972;BME280;23794;48.234;8.344;2024-01-10T08:41:07;94841.97;;;-6.67;76.98
37972;BME280;23794;48.234;8.344;2024-01-10T08:43:35;94843.25;;;-6.60;76.38
37972;BME280;23794;48.234;8.344;2024-01-10T08:46:01;94844.63;;;-6.67;76.82
37972;BME280;23794;48.234;8.344;2024-01-10T08:48:28;94841.88;;;-6.52;76.25
37972;BME280;23794;48.234;8.344;2024-01-10T08:50:55;94835.28;;;-6.25;76.57
37972;BME280;23794;48.234;8.344;2024-01-10T08:53:22;94839.41;;;-6.09;75.73
37972;BME280;23794;48.234;8.344;2024-01-10T08:55:49;94838.78;;;-5.95;75.64
37972;BME280;23794;48.234;8.344;2024-01-10T08:58:16;94844.44;;;-5.72;75.24
37972;BME280;23794;48.234;8.344;2024-01-10T09:00:42;94849.63;;;-5.86;75.54
37972;BME280;23794;48.234;8.344;2024-01-10T09:03:09;94850.47;;;-5.62;75.05
37972;BME280;23794;48.234;8.344;2024-01-10T09:05:36;94854.00;;;-5.42;74.82
37972;BME280;23794;48.234;8.344;2024-01-10T09:08:03;94851.06;;;-5.16;74.49
37972;BME280;23794;48.234;8.344;2024-01-10T09:10:30;94848.56;;;-5.07;73.61
37972;BME280;23794;48.234;8.344;2024-01-10T09:12:58;94854.56;;;-4.96;73.19
37972;BME280;23794;48.234;8.344;2024-01-10T09:15:25;94848.56;;;-5.07;73.33
37972;BME280;23794;48.234;8.344;2024-01-10T09:17:52;94856.16;;;-4.95;73.43
37972;BME280;23794;48.234;8.344;2024-01-10T09:20:18;94847.50;;;-4.87;73.72
37972;BME280;23794;48.234;8.344;2024-01-10T09:22:47;94852.94;;;-4.73;72.76
37972;BME280;23794;48.234;8.344;2024-01-10T09:25:15;94851.72;;;-4.62;72.88
37972;BME280;23794;48.234;8.344;2024-01-10T09:27:42;94858.81;;;-4.52;72.67
37972;BME280;23794;48.234;8.344;2024-01-10T09:30:11;94858.88;;;-4.38;72.55
37972;BME280;23794;48.234;8.344;2024-01-10T09:32:38;94857.63;;;-4.27;72.10
37972;BME280;23794;48.234;8.344;2024-01-10T09:35:05;94862.56;;;-4.34;71.64
37972;BME280;23794;48.234;8.344;2024-01-10T09:37:31;94859.09;;;-4.35;72.06
37972;BME280;23794;48.234;8.344;2024-01-10T09:39:58;94863.81;;;-4.26;71.55
37972;BME280;23794;48.234;8.344;2024-01-10T09:42:25;94859.31;;;-4.12;71.39
37972;BME280;23794;48.234;8.344;2024-01-10T09:44:52;94860.50;;;-4.04;71.22
37972;BME280;23794;48.234;8.344;2024-01-10T09:47:19;94868.47;;;-3.99;71.42
37972;BME280;23794;48.234;8.344;2024-01-10T09:49:46;94856.72;;;-3.84;71.18
37972;BME280;23794;48.234;8.344;2024-01-10T09:52:24;94853.56;;;-3.72;70.07
37972;BME280;23794;48.234;8.344;2024-01-10T09:54:56;94854.16;;;-3.75;70.79
37972;BME280;23794;48.234;8.344;2024-01-10T09:57:26;94859.72;;;-3.72;69.27
37972;BME280;23794;48.234;8.344;2024-01-10T09:59:53;94851.69;;;-3.72;70.71
37972;BME280;23794;48.234;8.344;2024-01-10T10:02:23;94859.19;;;-3.55;70.63
37972;BME280;23794;48.234;8.344;2024-01-10T10:04:59;94862.16;;;-3.42;69.78
37972;BME280;23794;48.234;8.344;2024-01-10T10:07:29;94862.19;;;-3.28;69.72
37972;BME280;23794;48.234;8.344;2024-01-10T10:09:57;94864.00;;;-3.24;69.83
37972;BME280;23794;48.234;8.344;2024-01-10T10:12:44;94852.47;;;-3.10;69.26
37972;BME280;23794;48.234;8.344;2024-01-10T10:15:13;94848.09;;;-3.06;69.65
37972;BME280;23794;48.234;8.344;2024-01-10T10:17:41;94849.38;;;-2.89;69.34
37972;BME280;23794;48.234;8.344;2024-01-10T10:20:20;94848.09;;;-2.78;68.94
37972;BME280;23794;48.234;8.344;2024-01-10T10:25:36;94854.31;;;-2.55;68.14
37972;BME280;23794;48.234;8.344;2024-01-10T10:28:08;94850.84;;;-2.69;68.10
37972;BME280;23794;48.234;8.344;2024-01-10T10:30:45;94854.41;;;-2.60;68.19
37972;BME280;23794;48.234;8.344;2024-01-10T10:33:12;94848.81;;;-2.50;68.06
37972;BME280;23794;48.234;8.344;2024-01-10T10:35:39;94851.28;;;-2.39;67.52
37972;BME280;23794;48.234;8.344;2024-01-10T10:38:11;94851.97;;;-2.34;68.11
37972;BME280;23794;48.234;8.344;2024-01-10T10:40:38;94850.63;;;-2.22;67.59
37972;BME280;23794;48.234;8.344;2024-01-10T10:43:12;94857.84;;;-2.09;68.25
37972;BME280;23794;48.234;8.344;2024-01-10T10:45:43;94850.25;;;-1.93;68.18
37972;BME280;23794;48.234;8.344;2024-01-10T10:48:19;94848.59;;;-1.80;68.16
37972;BME280;23794;48.234;8.344;2024-01-10T10:53:27;94850.78;;;-1.59;67.35
37972;BME280;23794;48.234;8.344;2024-01-10T10:55:57;94852.53;;;-1.55;67.28
37972;BME280;23794;48.234;8.344;2024-01-10T10:58:23;94844.88;;;-1.39;67.28
37972;BME280;23794;48.234;8.344;2024-01-10T11:00:51;94849.66;;;-1.27;66.64
37972;BME280;23794;48.234;8.344;2024-01-10T11:03:19;94851.41;;;-1.31;66.80
37972;BME280;23794;48.234;8.344;2024-01-10T11:05:47;94851.75;;;-1.24;66.91
37972;BME280;23794;48.234;8.344;2024-01-10T11:08:16;94856.41;;;-1.07;67.36
37972;BME280;23794;48.234;8.344;2024-01-10T11:10:44;94846.16;;;-0.96;66.03
37972;BME280;23794;48.234;8.344;2024-01-10T11:20:13;94844.03;;;-0.59;65.62
37972;BME280;23794;48.234;8.344;2024-01-10T11:23:01;94852.28;;;-0.46;65.73
37972;BME280;23794;48.234;8.344;2024-01-10T11:25:35;94850.59;;;-0.25;66.00
37972;BME280;23794;48.234;8.344;2024-01-10T11:28:04;94846.31;;;-0.17;66.33
37972;BME280;23794;48.234;8.344;2024-01-10T11:30:51;94845.97;;;0.11;65.63
37972;BME280;23794;48.234;8.344;2024-01-10T11:33:24;94845.34;;;0.23;65.95
37972;BME280;23794;48.234;8.344;2024-01-10T11:36:15;94838.84;;;0.24;64.83
37972;BME280;23794;48.234;8.344;2024-01-10T11:38:44;94844.69;;;0.17;64.92
37972;BME280;23794;48.234;8.344;2024-01-10T11:41:11;94842.94;;;0.30;65.85
37972;BME280;23794;48.234;8.344;2024-01-10T11:43:39;94836.13;;;0.41;65.82
37972;BME280;23794;48.234;8.344;2024-01-10T11:46:06;94830.22;;;0.48;65.87
37972;BME280;23794;48.234;8.344;2024-01-10T11:48:33;94827.66;;;0.61;66.20
37972;BME280;23794;48.234;8.344;2024-01-10T11:51:00;94834.47;;;0.67;66.25
37972;BME280;23794;48.234;8.344;2024-01-10T11:53:43;94836.13;;;0.89;67.06
37972;BME280;23794;48.234;8.344;2024-01-10T11:56:14;94827.06;;;0.94;66.75
37972;BME280;23794;48.234;8.344;2024-01-10T11:59:02;94829.03;;;0.84;66.61
37972;BME280;23794;48.234;8.344;2024-01-10T12:01:30;94826.44;;;0.97;67.18
37972;BME280;23794;48.234;8.344;2024-01-10T12:03:58;94826.84;;;1.08;67.25
37972;BME280;23794;48.234;8.344;2024-01-10T12:06:40;94829.34;;;1.13;67.18
37972;BME280;23794;48.234;8.344;2024-01-10T12:09:07;94827.09;;;1.24;66.93
37972;BME280;23794;48.234;8.344;2024-01-10T12:11:39;94816.16;;;1.20;67.37
37972;BME280;23794;48.234;8.344;2024-01-10T12:14:06;94819.41;;;1.34;67.26
37972;BME280;23794;48.234;8.344;2024-01-10T12:16:35;94812.44;;;1.33;67.37
37972;BME280;23794;48.234;8.344;2024-01-10T12:19:02;94804.34;;;1.33;67.44
37972;BME280;23794;48.234;8.344;2024-01-10T12:21:28;94807.53;;;1.27;67.17
37972;BME280;23794;48.234;8.344;2024-01-10T12:23:56;94805.72;;;1.40;67.20
37972;BME280;23794;48.234;8.344;2024-01-10T12:26:23;94809.69;;;1.42;66.59
37972;BME280;23794;48.234;8.344;2024-01-10T12:28:57;94810.47;;;1.43;66.71
37972;BME280;23794;48.234;8.344;2024-01-10T12:31:27;94806.19;;;1.42;66.60
37972;BME280;23794;48.234;8.344;2024-01-10T12:33:57;94800.53;;;1.56;66.50
37972;BME280;23794;48.234;8.344;2024-01-10T12:36:24;94800.16;;;1.66;66.45
37972;BME280;23794;48.234;8.344;2024-01-10T12:38:51;94800.81;;;1.84;66.25
37972;BME280;23794;48.234;8.344;2024-01-10T12:41:18;94793.19;;;2.53;64.86
37972;BME280;23794;48.234;8.344;2024-01-10T12:43:51;94793.28;;;2.57;63.87
37972;BME280;23794;48.234;8.344;2024-01-10T12:46:18;94801.94;;;2.96;63.83
37972;BME280;23794;48.234;8.344;2024-01-10T12:48:45;94796.38;;;3.42;62.14
37972;BME280;23794;48.234;8.344;2024-01-10T12:51:12;94803.03;;;3.20;61.99
37972;BME280;23794;48.234;8.344;2024-01-10T12:53:41;94801.66;;;2.76;62.97
37972;BME280;23794;48.234;8.344;2024-01-10T12:56:09;94807.25;;;2.59;63.54
37972;BME280;23794;48.234;8.344;2024-01-10T12:58:41;94806.59;;;2.62;64.30
37972;BME280;23794;48.234;8.344;2024-01-10T13:01:09;94815.19;;;2.64;63.95
37972;BME280;23794;48.234;8.344;2024-01-10T13:03:36;94808.75;;;2.69;63.93
37972;BME280;23794;48.234;8.344;2024-01-10T13:06:03;94809.19;;;2.58;64.06
37972;BME280;23794;48.234;8.344;2024-01-10T13:08:29;94818.66;;;2.64;64.37
37972;BME280;23794;48.234;8.344;2024-01-10T13:10:56;94810.00;;;2.71;64.55
37972;BME280;23794;48.234;8.344;2024-01-10T13:13:23;94807.06;;;2.76;64.22
37972;BME280;23794;48.234;8.344;2024-01-10T13:15:50;94804.13;;;2.81;64.16
37972;BME280;23794;48.234;8.344;2024-01-10T13:18:17;94804.38;;;2.76;63.94